M I D A S
Marine Information and Data Acquisition System
Tripno 505 of the Zeeleeuw from 2003-05-26 06:40:15 to 2003-05-26 16:43:07
Back to CruiseResearch ActivitiesStationsMapUnderway DataData graphs

EquipmentUnitsComment
TimeDGPSUTC
LatitudeDGPSDM.mWGS84
LongitudeDGPSDM.mWGS84
HeadingGyrodeg 
SOGDGPSknotsSpeed over ground
COGDGPSdegCourse over ground
DepthEcho soundermeters200 kHz
Missing or incorrect values are displayed as -999
Navigation data collected by the RV Zeeleeuw from 2003-05-26 06:40:15 to 2003-05-26 16:43:07
Time Latitude Longitude Heading SOG COG Depth
2003-05-26 06:41:19 51°13.6 2°56.1 115 0.2 303 -999
2003-05-26 06:42:19 51°13.62 2°56.05 113.2 3.4 296 -999
2003-05-26 06:43:19 51°13.64 2°55.93 116.8 5.1 293 -999
2003-05-26 06:44:19 51°13.67 2°55.82 102.8 3.9 288 -999
2003-05-26 06:45:19 51°13.68 2°55.76 85.2 0.5 259 10.9
2003-05-26 06:46:15 51°13.7 2°55.79 25.5 2.4 22 12.3
2003-05-26 06:47:15 51°13.7 2°55.79 356.2 1.5 180 -999
2003-05-26 06:48:19 51°13.7 2°55.78 329.4 2.1 326 -999
2003-05-26 06:49:15 51°13.75 2°55.72 329.7 5.1 326 11.6
2003-05-26 06:50:15 51°13.84 2°55.63 336.4 7 332 11.4
2003-05-26 06:51:15 51°13.95 2°55.55 339.2 7.6 335 12.1
2003-05-26 06:52:15 51°14.07 2°55.46 339.3 8 334 11.7
2003-05-26 06:53:15 51°14.18 2°55.36 333.1 7.9 329 12.3
2003-05-26 06:54:15 51°14.28 2°55.22 317.9 8 314 12.2
2003-05-26 06:55:15 51°14.37 2°55.06 322.2 8 318 11.6
2003-05-26 06:56:15 51°14.5 2°54.98 345.5 9.5 343 10.5
2003-05-26 06:57:15 51°14.67 2°54.94 353.8 10.5 352 10.2
2003-05-26 06:58:15 51°14.84 2°54.91 354.6 10.5 353 9.9
2003-05-26 06:59:15 51°15.02 2°54.88 2.3 10.7   10
2003-05-26 07:00:15 51°15.2 2°54.89 1.6 11.2 359 9.1
2003-05-26 07:01:15 51°15.39 2°54.87 5.3 11.4 2 9.8
2003-05-26 07:02:15 51°15.58 2°54.87 0.5 11.4 357 10.2
2003-05-26 07:03:15 51°15.77 2°54.86 4.1 11.4   10.7
2003-05-26 07:04:15 51°15.96 2°54.83 354.5 11.3 351 11.4
2003-05-26 07:05:15 51°16.13 2°54.74 331.8 9.6 331 12
2003-05-26 07:06:15 51°16.18 2°54.6 283.4 5 284 12.3
2003-05-26 07:07:15 51°16.2 2°54.5 294.1 3.6 295 12.5
2003-05-26 07:08:15 51°16.23 2°54.41 299.9 4.8 301 12.7
2003-05-26 07:09:15 51°16.27 2°54.3 294.5 3.7 298 12.8
2003-05-26 07:10:15 51°16.28 2°54.28 283.7 0.6 334 12.8
2003-05-26 07:11:15 51°16.29 2°54.27 276.7 0.4 337 12.8
2003-05-26 07:12:15 51°16.3 2°54.27 274 0.3 346 12.9
2003-05-26 07:13:15 51°16.3 2°54.27 273.6 0.3 1 12.9
2003-05-26 07:14:15 51°16.31 2°54.27 274.9 0.4 12 12.9
2003-05-26 07:15:15 51°16.32 2°54.27 277 0.5 19 12.9
2003-05-26 07:16:15 51°16.32 2°54.28 274.3 0.5 32 12.9
2003-05-26 07:17:15 51°16.33 2°54.29 270.4 0.6 38 12.9
2003-05-26 07:18:15 51°16.34 2°54.3 264.7 0.6 48 13
2003-05-26 07:19:15 51°16.34 2°54.31 253.4 0.4 56 13
2003-05-26 07:20:15 51°16.34 2°54.3 241.6 1.7 233 12.9
2003-05-26 07:21:15 51°16.35 2°54.21 303.4 6.1 303 13
2003-05-26 07:22:15 51°16.42 2°54.03 302.2 9.1 302 13.3
2003-05-26 07:23:15 51°16.5 2°53.81 302 9.4 301 13.4
2003-05-26 07:24:15 51°16.59 2°53.61 316.6 9.7 315 13.4
2003-05-26 07:25:15 51°16.71 2°53.44 315.7 9.7 315 13
2003-05-26 07:26:15 51°16.83 2°53.25 318.1 11.2 316 12.1
2003-05-26 07:27:15 51°16.97 2°53.03 317.7 11.8 315 9.9
2003-05-26 07:28:15 51°17.12 2°52.8 317.4 12.8 315 11.6
2003-05-26 07:29:15 51°17.28 2°52.57 319.4 12.8 317 11.2
2003-05-26 07:30:15 51°17.43 2°52.34 319.1 12.8 317 12
2003-05-26 07:31:15 51°17.59 2°52.11 319.1 12.8 317 11.9
2003-05-26 07:32:15 51°17.76 2°51.91 331.7 12.9 329 11.8
2003-05-26 07:33:15 51°17.94 2°51.73 331.2 12.9 329 12
2003-05-26 07:34:15 51°18.13 2°51.55 330.6 12.9 328 12.8
2003-05-26 07:35:15 51°18.3 2°51.38 329.5 10.3 328 14.1
2003-05-26 07:36:15 51°18.41 2°51.27 322.6 7.3 324 14.9
2003-05-26 07:37:15 51°18.45 2°51.13 275 5.5 274 15.3
2003-05-26 07:38:15 51°18.47 2°51.02 299.3 3.4 302 15.5
2003-05-26 07:39:15 51°18.49 2°51.01 329.6 1 12 15.5
2003-05-26 07:40:15 51°18.51 2°51.02 353.3 1.3 24 15.6
2003-05-26 07:41:15 51°18.53 2°51.03 327.8 1.4 4 15.8
2003-05-26 07:42:15 51°18.55 2°51.03 308.4 1 356 15.8
2003-05-26 07:43:15 51°18.57 2°51.03 290.3 0.7 347 15.8
2003-05-26 07:44:15 51°18.57 2°51.02 272.5 0.4 337 15.9
2003-05-26 07:45:15 51°18.58 2°51.02 253.3 0.1 320 15.8
2003-05-26 07:46:15 51°18.58 2°51.02 232.6 0.3 147 15.8
2003-05-26 07:47:15 51°18.57 2°51.03 212.9 0.6 138 15.8
2003-05-26 07:48:15 51°18.56 2°51.04 206.6 0.8 139 15.8
2003-05-26 07:49:15 51°18.54 2°51.04 224.5 2.4 208 15.8
2003-05-26 07:50:15 51°18.52 2°50.96 276.5 3.7 276 15.8
2003-05-26 07:51:15 51°18.57 2°50.89 339.9 4.9 345 16
2003-05-26 07:52:15 51°18.71 2°50.94 24.3 12.4 22 16.2
2003-05-26 07:53:15 51°18.88 2°51.18 62.9 14.5 58 16.5
2003-05-26 07:54:15 51°18.97 2°51.55 79.1 14.8 74 16.4
2003-05-26 07:55:15 51°19.03 2°51.93 78.3 14.8 74 16.2
2003-05-26 07:56:15 51°19.1 2°52.3 78.8 14.8 74 15.6
2003-05-26 07:57:15 51°19.16 2°52.68 79.1 14.7 75 15.1
2003-05-26 07:58:15 51°19.23 2°53.06 78.2 14.7 74 14.6
2003-05-26 07:59:15 51°19.3 2°53.43 76.1 14.7 72 14.3
2003-05-26 08:00:15 51°19.38 2°53.8 75.8 14.7 72 14.1
2003-05-26 08:01:15 51°19.46 2°54.18 76.3 14.8 72 14
2003-05-26 08:02:15 51°19.53 2°54.55 77.3 14.8 73 14.1
2003-05-26 08:03:15 51°19.6 2°54.93 77.4 14.9 73 14
2003-05-26 08:04:15 51°19.68 2°55.31 77.2 14.9 72 14
2003-05-26 08:05:15 51°19.75 2°55.68 77.4 15 73 13.9
2003-05-26 08:06:15 51°19.82 2°56.06 78 14.9 73 13.8
2003-05-26 08:07:15 51°19.9 2°56.44 77.4 15 73 13.7
2003-05-26 08:08:15 51°19.98 2°56.83 77.3 15.1 73 13.5
2003-05-26 08:09:15 51°20.05 2°57.21 77.6 15.1 72 13.3
2003-05-26 08:10:15 51°20.13 2°57.59 77.1 15.1 72 13.2
2003-05-26 08:11:15 51°20.2 2°57.98 77.3 15.2 72 13.1
2003-05-26 08:12:15 51°20.28 2°58.36 77.6 15.1 72 12.9
2003-05-26 08:13:15 51°20.36 2°58.74 77.5 15.2 72 12.7
2003-05-26 08:14:15 51°20.44 2°59.12 76.7 15.2 71 12.7
2003-05-26 08:15:15 51°20.51 2°59.51 79.6 15.1 74 12.6
2003-05-26 08:16:15 51°20.58 2°59.9 79.2 15.2 74 12.4
2003-05-26 08:17:15 51°20.65 3°0.29 79.6 15.2 74 12.3
2003-05-26 08:18:15 51°20.72 3°0.68 79.1 15.3 74 12.2
2003-05-26 08:19:23 51°20.81 3°1.12 79.2 15.3 74 12.2
2003-05-26 08:20:47 51°20.9 3°1.67 79.9 15.4 74 12.2
2003-05-26 08:21:49 51°20.98 3°2.07 79.3 15.4 74 12.2
2003-05-26 08:22:55 51°21.05 3°2.5 79.8 15.3 74 12.4
2003-05-26 08:24:07 51°21.15 3°2.97 76.7 15.4 72 12.4
2003-05-26 08:25:07 51°21.23 3°3.36 77.4 15.4 72 12.4
2003-05-26 08:26:19 51°21.32 3°3.83 77.1 15.5 72 12.4
2003-05-26 08:27:35 51°21.42 3°4.32 76.9 15.5 72 12.4
2003-05-26 08:28:35 51°21.5 3°4.72 77.3 15.5 72 12.7
2003-05-26 08:29:53 51°21.61 3°5.23 77.4 15.6 72 12.7
2003-05-26 08:30:53 51°21.68 3°5.63 80 15.7 75 12.8
2003-05-26 08:31:53 51°21.75 3°6.02 81.3 15.6 76 12.9
2003-05-26 08:33:03 51°21.82 3°6.49 81.2 15.6 76 13.1
2003-05-26 08:34:09 51°21.88 3°6.94 85.6 15.6 79 13.2
2003-05-26 08:35:15 51°21.93 3°7.39 85.6 15.7 79 13.4
2003-05-26 08:36:15 51°21.98 3°7.8 85.3 15.6 79 13.3
2003-05-26 08:37:23 51°22.04 3°8.26 85.5 15.7 79 13.5
2003-05-26 08:38:39 51°22.1 3°8.78 84.9 15.8 79 13.8
2003-05-26 08:39:39 51°22.14 3°9.19 85.7 15.7 80 14.3
2003-05-26 08:40:53 51°22.19 3°9.62 86.2 10.5 79 15.1
2003-05-26 08:41:53 51°22.22 3°9.85 87.1 7.9 79 15.6
2003-05-26 08:42:53 51°22.23 3°10.05 105.5 8.4 93 15.8
2003-05-26 08:43:53 51°22.21 3°10.36 103.2 14.7 95 16.4
2003-05-26 08:45:03 51°22.28 3°10.84 77.4 16.1 72 19.5
2003-05-26 08:46:03 51°22.36 3°11.25 78 16.4 73 17.4
2003-05-26 08:47:03 51°22.44 3°11.67 78 16.4 73 17
2003-05-26 08:48:15 51°22.54 3°12.17 77.8 16.5 74 16.1
2003-05-26 08:49:27 51°22.6 3°12.58 77.6 11.4 75 15.5
2003-05-26 08:50:27 51°22.64 3°12.84 86.3 9.2 81 15.1
2003-05-26 08:51:27 51°22.66 3°13.07 82.3 8.2 79 14.6
2003-05-26 08:52:43 51°22.65 3°13.29 146.4 5.6 118 14.2
2003-05-26 08:53:43 51°22.6 3°13.36 203.7 3.4 157 14.2
2003-05-26 08:54:43 51°22.56 3°13.35 268.3 1.6 258 14.2
2003-05-26 08:55:43 51°22.59 3°13.28 289.6 3.6 300 14.3
2003-05-26 08:56:43 51°22.6 3°13.23 270.7 1 283 14.4
2003-05-26 08:57:43 51°22.6 3°13.24 259.3 0.4 116 14.4
2003-05-26 08:58:43 51°22.6 3°13.26 256.6 0.7 104 14.4
2003-05-26 08:59:55 51°22.59 3°13.28 243.8 1.1 107 14.5
2003-05-26 09:00:55 51°22.59 3°13.31 236.9 1.3 114 14.3
2003-05-26 09:01:55 51°22.57 3°13.34 243.2 1.1 128 14.3
2003-05-26 09:03:11 51°22.56 3°13.37 258.6 0.6 119 14.3
2003-05-26 09:04:11 51°22.56 3°13.38 275.9 0.5 64 14.2
2003-05-26 09:05:15 51°22.57 3°13.39 294.4 0.9 31 14.2
2003-05-26 09:06:15 51°22.59 3°13.41 315.1 1.7 28 14
2003-05-26 09:07:23 51°22.62 3°13.44 304.8 1.5 32 14
2003-05-26 09:08:23 51°22.65 3°13.45 316.2 2.1 4 13.9
2003-05-26 09:09:23 51°22.72 3°13.43 333.3 7.1 346 13.8
2003-05-26 09:10:23 51°22.88 3°13.41 352.3 10.7 359 13.4
2003-05-26 09:11:33 51°23.09 3°13.41 353.9 11.4 1 12.3
2003-05-26 09:12:31 51°23.27 3°13.47 20.1 10.4 25 14
2003-05-26 09:13:39 51°23.4 3°13.67 51.4 9.6 53 14.1
2003-05-26 09:14:39 51°23.5 3°13.87 45.6 9.2 49 13.8
2003-05-26 09:15:39 51°23.59 3°14.05 46.7 9.2 50 14.1
2003-05-26 09:16:39 51°23.69 3°14.24 47 9.2 50 13.1
2003-05-26 09:17:49 51°23.8 3°14.46 46.5 8.9 50 13.3
2003-05-26 09:18:49 51°23.9 3°14.62 31.8 7.3 41 13.4
2003-05-26 09:19:47 51°23.98 3°14.7 0.7 4.8 22 13.2
2003-05-26 09:20:47 51°24.05 3°14.73 352 4.8 14 12.9
2003-05-26 09:21:47 51°24.13 3°14.72 321.8 5.6 337 13.8
2003-05-26 09:22:49 51°24.27 3°14.62 333 12.4 340 16
2003-05-26 09:23:47 51°24.49 3°14.61 2.9 14.4 6 20.3
2003-05-26 09:24:49 51°24.73 3°14.67 13 14.8 15 19.8
2003-05-26 09:25:49 51°24.95 3°14.86 45 15.2 46 17.3
2003-05-26 09:26:49 51°25.09 3°15.21 63 15.5 61 15.7
2003-05-26 09:27:47 51°25.22 3°15.55 60.5 15.6 59 14.2
2003-05-26 09:28:59 51°25.37 3°15.98 63 15.2 61 12.2
2003-05-26 09:29:59 51°25.49 3°16.32 63.8 14.6 60 11.4
2003-05-26 09:30:59 51°25.61 3°16.66 62.9 14.6 59 11
2003-05-26 09:31:59 51°25.74 3°17 62.9 14.6 60 10.7
2003-05-26 09:32:59 51°25.84 3°17.34 67.9 13.7 65 10.6
2003-05-26 09:33:59 51°25.83 3°17.56 147.6 6.3 140 11
2003-05-26 09:34:59 51°25.77 3°17.61 185.6 2.7 160 11.3
2003-05-26 09:35:59 51°25.75 3°17.63 216.2 1.4 76 11.4
2003-05-26 09:36:59 51°25.77 3°17.68 216.8 2.7 50 -999
2003-05-26 09:37:59 51°25.81 3°17.74 212 3.5 42 -999
2003-05-26 09:38:59 51°25.86 3°17.79 201.5 3.7 31 -999
2003-05-26 09:39:59 51°25.9 3°17.84 191.3 2.5 30 11.2
2003-05-26 09:40:59 51°25.91 3°17.86 198.8 1.1 140 11.1
2003-05-26 09:41:59 51°25.89 3°17.88 206 1.1 151 11.2
2003-05-26 09:42:59 51°25.87 3°17.89 214.6 1.1 166 11.2
2003-05-26 09:43:59 51°25.86 3°17.89 228.5 0.9 183 11.3
2003-05-26 09:44:59 51°25.85 3°17.89 246.3 0.6 204 11.3
2003-05-26 09:45:59 51°25.84 3°17.88 264.4 0.5 234 11.3
2003-05-26 09:46:59 51°25.84 3°17.82 267.8 6.1 263 11.2
2003-05-26 09:47:59 51°25.81 3°17.55 272.4 12 270 10.8
2003-05-26 09:48:59 51°25.8 3°17.23 270.7 12.3 267 10.6
2003-05-26 09:49:59 51°25.79 3°16.9 271.1 12.3 268 10.5
2003-05-26 09:50:59 51°25.78 3°16.57 269.6 12.3 266 10.3
2003-05-26 09:51:59 51°25.77 3°16.25 269.9 12.3 266 10.4
2003-05-26 09:52:59 51°25.75 3°15.92 269.3 12.4 266 10.5
2003-05-26 09:53:59 51°25.74 3°15.59 268.5 12.4 265 10.5
2003-05-26 09:54:59 51°25.72 3°15.25 267.9 13.2 264 10.4
2003-05-26 09:55:59 51°25.7 3°14.9 267.9 13.3 265 10.3
2003-05-26 09:56:59 51°25.68 3°14.54 267.5 13.3 264 10.1
2003-05-26 09:57:59 51°25.66 3°14.19 268.1 13.3 265 10
2003-05-26 09:58:59 51°25.64 3°13.84 267.7 13.4 265 10
2003-05-26 09:59:59 51°25.62 3°13.48 267.8 13.4 265 10.1
2003-05-26 10:00:59 51°25.6 3°13.12 268.4 13.4 265 10.6
2003-05-26 10:01:59 51°25.58 3°12.77 268.3 13.5 265 10.8
2003-05-26 10:02:59 51°25.56 3°12.41 268.3 13.4 265 11
2003-05-26 10:03:59 51°25.56 3°12.05 274.7 13.4 272 11
2003-05-26 10:04:59 51°25.59 3°11.7 285.6 13.4 284 10.7
2003-05-26 10:05:59 51°25.65 3°11.36 289.5 13.4 287 10.1
2003-05-26 10:06:59 51°25.73 3°11.02 293.2 13.4 291 9.7
2003-05-26 10:07:59 51°25.81 3°10.69 293.2 13.5 292 9.7
2003-05-26 10:08:59 51°25.89 3°10.36 292.5 13.5 291 9.9
2003-05-26 10:09:59 51°25.97 3°10.02 293.2 13.5 292 10
2003-05-26 10:10:59 51°26.06 3°9.69 292.2 13.5 291 10.3
2003-05-26 10:11:59 51°26.14 3°9.35 292.8 13.5 292 10.9
2003-05-26 10:12:59 51°26.22 3°9.02 291.9 13.6 292 11.3
2003-05-26 10:13:59 51°26.32 3°8.7 309.1 12.2 311 12
2003-05-26 10:14:59 51°26.43 3°8.54 294.8 6 300 12.9
2003-05-26 10:15:59 51°26.44 3°8.43 263.5 3.3 272 12.9
2003-05-26 10:16:59 51°26.44 3°8.36 256.7 2.4 266 12.9
2003-05-26 10:17:59 51°26.45 3°8.33 254 0.4 347 13
2003-05-26 10:18:59 51°26.45 3°8.33 260.6 0.5 351 12.9
2003-05-26 10:19:59 51°26.46 3°8.33 267.4 0.5 354 12.9
2003-05-26 10:20:59 51°26.47 3°8.32 268.1 0.5 359 13
2003-05-26 10:21:59 51°26.48 3°8.33 264.4 0.6 6 12.8
2003-05-26 10:22:59 51°26.49 3°8.33 258 0.5 13 13
2003-05-26 10:23:59 51°26.5 3°8.33 250.7 0.4 24 13
2003-05-26 10:24:59 51°26.5 3°8.34 243.8 0.5 24 13
2003-05-26 10:25:59 51°26.51 3°8.34 240 0.2 313 13.1
2003-05-26 10:26:59 51°26.5 3°8.28 251 4.6 252 12.8
2003-05-26 10:27:59 51°26.48 3°8.13 268.1 6.7 271 12.6
2003-05-26 10:28:59 51°26.52 3°7.95 303.1 7.4 308 12.5
2003-05-26 10:29:59 51°26.6 3°7.79 297 7.4 300 12.6
2003-05-26 10:30:59 51°26.66 3°7.62 299.3 7.6 302 12.9
2003-05-26 10:31:59 51°26.73 3°7.45 298.6 8.5 301 13.1
2003-05-26 10:32:59 51°26.82 3°7.22 298.8 10.9 300 13.5
2003-05-26 10:33:59 51°26.91 3°6.96 299.1 11.4 300 13.9
2003-05-26 10:34:59 51°27.01 3°6.69 301 11.5 302 14.3
2003-05-26 10:35:59 51°27.11 3°6.44 303.3 11.5 304 14.8
2003-05-26 10:36:59 51°27.22 3°6.18 303.2 11.5 304 15.1
2003-05-26 10:37:59 51°27.33 3°5.93 303.7 11.5 304 15.6
2003-05-26 10:38:59 51°27.43 3°5.67 303.3 11.5 304 16
2003-05-26 10:39:59 51°27.54 3°5.42 303.5 11.5 304 16.5
2003-05-26 10:40:59 51°27.65 3°5.16 303.7 11.4 304 16
2003-05-26 10:41:59 51°27.75 3°4.91 302.8 11.4 303 15.9
2003-05-26 10:42:59 51°27.86 3°4.66 303 11.3 304 16.7
2003-05-26 10:43:59 51°27.96 3°4.41 303.3 11.4 304 18.6
2003-05-26 10:44:59 51°28.07 3°4.16 303.1 11.3 304 20.5
2003-05-26 10:45:59 51°28.18 3°3.92 303.3 11.3 304 22
2003-05-26 10:46:59 51°28.28 3°3.67 296.5 9.3 299 23.6
2003-05-26 10:47:59 51°28.28 3°3.53 242.9 3.4 246 24.3
2003-05-26 10:48:59 51°28.28 3°3.49 268 1.1 300 24.4
2003-05-26 10:49:59 51°28.3 3°3.48 283.6 0.9 352 24.5
2003-05-26 10:50:59 51°28.31 3°3.48 284.1 0.9 3 24.5
2003-05-26 10:51:59 51°28.33 3°3.49 277 0.8 10 24.6
2003-05-26 10:52:59 51°28.34 3°3.49 268.3 0.8 16 24.6
2003-05-26 10:53:59 51°28.35 3°3.5 264.4 0.7 15 24.7
2003-05-26 10:54:59 51°28.36 3°3.51 263.2 0.7 18 24.7
2003-05-26 10:55:59 51°28.37 3°3.51 264.5 0.7 20 24.8
2003-05-26 10:56:59 51°28.38 3°3.52 265.4 0.7 20 24.6
2003-05-26 10:57:59 51°28.4 3°3.52 265.6 0.7 23 24.6
2003-05-26 10:58:59 51°28.41 3°3.53 266.3 0.8 20 24.7
2003-05-26 10:59:59 51°28.42 3°3.54 267.6 0.7 338 24.7
2003-05-26 11:00:59 51°28.42 3°3.47 253.3 4.4 256 24.7
2003-05-26 11:01:59 51°28.37 3°3.24 254.5 12 253 25
2003-05-26 11:02:59 51°28.31 3°2.92 254.7 12.8 254 25.3
2003-05-26 11:03:59 51°28.25 3°2.59 255.3 12.8 254 25.4
2003-05-26 11:04:59 51°28.19 3°2.27 255.4 12.8 254 25.4
2003-05-26 11:05:59 51°28.13 3°1.94 255.2 12.9 254 25.4
2003-05-26 11:06:59 51°28.07 3°1.61 255.4 12.9 254 25.2
2003-05-26 11:07:59 51°28.01 3°1.28 254.7 13 253 24.4
2003-05-26 11:08:59 51°27.95 3°0.94 256 13.1 255 24.1
2003-05-26 11:09:59 51°27.89 3°0.61 255.4 13.1 254 23.7
2003-05-26 11:10:59 51°27.83 3°0.27 255.4 13.2 254 22.3
2003-05-26 11:11:59 51°27.77 2°59.94 255.4 13.1 254 20.4
2003-05-26 11:12:59 51°27.71 2°59.6 255.9 13.1 255 20.6
2003-05-26 11:13:59 51°27.65 2°59.27 255.4 13.2 254 20.9
2003-05-26 11:14:59 51°27.58 2°58.93 255.1 13.2 253 20
2003-05-26 11:15:59 51°27.52 2°58.59 255.8 13.2 254 19.5
2003-05-26 11:16:59 51°27.46 2°58.26 255.2 13.1 253 20.5
2003-05-26 11:17:59 51°27.4 2°57.92 254.9 13.1 253 22.6
2003-05-26 11:18:59 51°27.34 2°57.59 254.9 13.1 253 25.6
2003-05-26 11:19:59 51°27.27 2°57.25 255.5 13 254 26.3
2003-05-26 11:20:59 51°27.21 2°56.92 255.1 12.9 253 24.5
2003-05-26 11:21:59 51°27.15 2°56.59 255.5 12.9 254 23.7
2003-05-26 11:22:59 51°27.09 2°56.26 255.6 12.9 254 29.3
2003-05-26 11:23:59 51°27.03 2°55.93 255.2 12.9 254 30.2
2003-05-26 11:24:59 51°26.97 2°55.6 255.6 13 254 31.1
2003-05-26 11:25:59 51°26.91 2°55.27 255.4 12.9 254 28.2
2003-05-26 11:26:59 51°26.85 2°54.94 255.5 12.9 254 27.4
2003-05-26 11:27:59 51°26.8 2°54.6 257.2 13 257 26.1
2003-05-26 11:28:59 51°26.75 2°54.27 257.6 12.8 256 28.5
2003-05-26 11:29:59 51°26.69 2°53.94 257.3 13.1 255 33
2003-05-26 11:30:59 51°26.64 2°53.6 257.6 13.1 256 33.1
2003-05-26 11:31:59 51°26.58 2°53.26 257.3 13.2 255 32.5
2003-05-26 11:32:59 51°26.53 2°52.92 257.6 13.1 256 29.6
2003-05-26 11:33:59 51°26.48 2°52.58 259.3 13.1 258 29.3
2003-05-26 11:34:59 51°26.43 2°52.24 259.6 13.1 258 28.3
2003-05-26 11:35:59 51°26.38 2°51.9 259.3 13.1 257 26.6
2003-05-26 11:36:59 51°26.34 2°51.56 259.7 13 258 28.1
2003-05-26 11:37:59 51°26.29 2°51.22 260.3 13 258 25.7
2003-05-26 11:38:59 51°26.25 2°50.88 260.6 13 260 24.9
2003-05-26 11:39:59 51°26.21 2°50.54 260.5 13 260 24.5
2003-05-26 11:40:59 51°26.17 2°50.2 260.5 13 259 24.6
2003-05-26 11:41:59 51°26.14 2°49.86 260.5 13 260 24.5
2003-05-26 11:42:59 51°26.1 2°49.52 260.8 13 260 24.5
2003-05-26 11:43:59 51°26.06 2°49.18 261.7 13.1 261 24.8
2003-05-26 11:44:59 51°26.03 2°48.84 261.7 11.1 262 24.6
2003-05-26 11:45:59 51°26.01 2°48.63 260.5 6.1 263 25.2
2003-05-26 11:46:59 51°26.01 2°48.52 269.1 2.7 277 24.7
2003-05-26 11:47:59 51°26.02 2°48.49 243.8 0.5 291 24.6
2003-05-26 11:48:59 51°26.02 2°48.49 242.4 0.3 301 24.6
2003-05-26 11:49:59 51°26.02 2°48.48 246.6 0.3 335 24.4
2003-05-26 11:50:59 51°26.03 2°48.48 241.8 0.3 359 24.1
2003-05-26 11:51:59 51°26.03 2°48.48 234.4 0.3 19 23.1
2003-05-26 11:52:59 51°26.04 2°48.49 226.4 0.3 43 24.5
2003-05-26 11:53:59 51°26.04 2°48.49 215.6 0.3 65 24.8
2003-05-26 11:54:59 51°26.04 2°48.5 200.9 0.5 99 24.8
2003-05-26 11:55:59 51°26.04 2°48.51 195.9 0.5 116 24.7
2003-05-26 11:56:59 51°26.04 2°48.53 196.6 0.5 121 24.8
2003-05-26 11:57:59 51°26.03 2°48.54 198.2 0.5 132 24.6
2003-05-26 11:58:59 51°26.03 2°48.54 200.3 0.5 141 24.1
2003-05-26 11:59:59 51°26.02 2°48.55 201.9 0.5 146 24.4
2003-05-26 12:00:59 51°26.01 2°48.56 202.8 0.5 150 24.9
2003-05-26 12:01:59 51°26.01 2°48.57 205.6 0.5 155 25
2003-05-26 12:02:59 51°26 2°48.57 210.6 0.4 174 24.9
2003-05-26 12:03:59 51°25.99 2°48.57 215.5 0.6 204 24.9
2003-05-26 12:04:59 51°25.92 2°48.48 224.9 9.6 224 24.6
2003-05-26 12:05:59 51°25.84 2°48.22 254.6 11.5 254 24.5
2003-05-26 12:06:59 51°25.77 2°47.91 252.6 12.9 252 24.5
2003-05-26 12:07:59 51°25.7 2°47.59 252.6 13.2 251 26.5
2003-05-26 12:08:59 51°25.64 2°47.25 252.7 13.1 251 26
2003-05-26 12:09:59 51°25.57 2°46.92 253.3 13.2 252 24.7
2003-05-26 12:10:59 51°25.5 2°46.58 253.2 13.2 252 25
2003-05-26 12:11:59 51°25.43 2°46.25 252.6 13.2 251 26.6
2003-05-26 12:12:59 51°25.36 2°45.92 253.1 13.2 251 26.1
2003-05-26 12:13:59 51°25.3 2°45.58 256.5 13.2 255 26
2003-05-26 12:14:59 51°25.25 2°45.24 255.7 13.2 254 25.7
2003-05-26 12:15:59 51°25.19 2°44.9 255.3 13.2 253 24.4
2003-05-26 12:16:59 51°25.13 2°44.56 255.3 13.2 254 23.8
2003-05-26 12:17:59 51°25.07 2°44.22 254.8 13.3 254 21.3
2003-05-26 12:18:59 51°25 2°43.89 253 13.2 251 21.1
2003-05-26 12:19:59 51°24.93 2°43.55 253.6 13.2 252 21.6
2003-05-26 12:20:59 51°24.86 2°43.22 253.6 13.2 252 24.6
2003-05-26 12:21:59 51°24.8 2°42.88 253.8 13.2 253 22.2
2003-05-26 12:22:59 51°24.73 2°42.55 253.2 13.3 252 24.6
2003-05-26 12:23:59 51°24.66 2°42.21 253.5 13.2 253 21.3
2003-05-26 12:24:59 51°24.59 2°41.88 252.8 13.2 251 25.4
2003-05-26 12:25:59 51°24.53 2°41.55 253.3 13.2 253 28.8
2003-05-26 12:26:59 51°24.46 2°41.21 253.6 13.2 253 26.7
2003-05-26 12:27:59 51°24.39 2°40.88 253.3 13.2 252 28.3
2003-05-26 12:28:59 51°24.31 2°40.55 249.2 13.2 248 25.9
2003-05-26 12:29:59 51°24.23 2°40.23 249.2 13.2 248 27.2
2003-05-26 12:30:59 51°24.15 2°39.9 249.6 13.3 248 25.7
2003-05-26 12:31:59 51°24.06 2°39.57 248.9 13.3 247 27.8
2003-05-26 12:32:59 51°23.99 2°39.24 255.8 13.3 254 25.6
2003-05-26 12:33:59 51°23.93 2°38.9 255.4 13.4 254 24.6
2003-05-26 12:34:59 51°23.87 2°38.55 256.1 13.3 255 26.8
2003-05-26 12:35:59 51°23.83 2°38.21 261.8 13.4 261 26.5
2003-05-26 12:36:59 51°23.79 2°37.85 263.9 13.4 262 25.1
2003-05-26 12:37:59 51°23.77 2°37.5 266.2 13.5 265 22.6
2003-05-26 12:38:59 51°23.75 2°37.14 265.4 13.6 264 25.3
2003-05-26 12:39:59 51°23.73 2°36.78 270.5 13.6 269 24.5
2003-05-26 12:40:59 51°23.73 2°36.42 270.1 13.7 268 30.5
2003-05-26 12:41:59 51°23.72 2°36.06 270.7 13.3 269 31.5
2003-05-26 12:42:59 51°23.71 2°35.71 270.8 12.9 269 33
2003-05-26 12:43:59 51°23.71 2°35.37 270.8 12.8 268 32.8
2003-05-26 12:44:59 51°23.7 2°35.04 270.2 12.2 268 33.6
2003-05-26 12:45:59 51°23.7 2°34.72 270.3 12.1 269 34.5
2003-05-26 12:46:59 51°23.69 2°34.39 270.5 12.1 269 33.8
2003-05-26 12:47:59 51°23.69 2°34.08 270.1 11.9 268 32
2003-05-26 12:48:59 51°23.68 2°33.76 270.3 11.9 268 31.2
2003-05-26 12:49:59 51°23.68 2°33.44 269.8 11.8 268 31
2003-05-26 12:50:59 51°23.67 2°33.13 269.8 11.9 268 31.3
2003-05-26 12:51:59 51°23.67 2°32.82 270.5 11.5 268 27.9
2003-05-26 12:52:59 51°23.66 2°32.51 270.2 11.4 268 30.4
2003-05-26 12:53:59 51°23.66 2°32.21 270.2 11.4 269 27.7
2003-05-26 12:54:59 51°23.65 2°31.91 270.4 11.1 269 22.3
2003-05-26 12:55:59 51°23.65 2°31.62 270.7 10.7 269 24.4
2003-05-26 12:56:59 51°23.65 2°31.34 270 10.2 269 29.3
2003-05-26 12:57:59 51°23.64 2°31.07 268.3 10 267 32.6
2003-05-26 12:58:59 51°23.61 2°30.81 256.5 9.9 255 33
2003-05-26 12:59:59 51°23.56 2°30.57 229.3 8.2 223 33.5
2003-05-26 13:00:59 51°23.42 2°30.58 178 10.6 174 32.5
2003-05-26 13:01:59 51°23.21 2°30.57 187 13.4 184 31.8
2003-05-26 13:02:59 51°22.99 2°30.52 193.2 13.5 190 31.6
2003-05-26 13:03:59 51°22.77 2°30.45 193 13.5 190 31.8
2003-05-26 13:04:59 51°22.55 2°30.39 192.4 13.5 190 30
2003-05-26 13:05:59 51°22.33 2°30.33 191.6 13.6 189 31.3
2003-05-26 13:06:59 51°22.1 2°30.27 192.4 13.7 190 32.5
2003-05-26 13:07:59 51°21.88 2°30.2 192.4 13.7 190 31.7
2003-05-26 13:08:59 51°21.66 2°30.14 192.3 13.8 190 28.1
2003-05-26 13:09:59 51°21.43 2°30.07 193 13.5 191 23.8
2003-05-26 13:10:59 51°21.25 2°30.03 192.2 10.5 189 26.2
2003-05-26 13:11:59 51°21.05 2°29.97 192 12.6 189 27.3
2003-05-26 13:12:59 51°20.84 2°29.92 192.8 12.8 190 28.6
2003-05-26 13:13:59 51°20.63 2°29.86 192 12.7 189 29.6
2003-05-26 13:14:59 51°20.42 2°29.81 192.3 12.7 189 30
2003-05-26 13:15:59 51°20.23 2°29.76 193.7 10 190 29.7
2003-05-26 13:16:59 51°20.13 2°29.65 239.9 5.1 239 29.9
2003-05-26 13:17:59 51°20.11 2°29.55 262.4 3.3 263 32
2003-05-26 13:18:59 51°20.11 2°29.48 275 2.1 277 31
2003-05-26 13:19:59 51°20.11 2°29.45 288.4 0.1 329 30.9
2003-05-26 13:21:01 51°20.11 2°29.48 293.1 2.7 106 -999
2003-05-26 13:22:01 51°20.1 2°29.59 286.1 4.6 98 -999
2003-05-26 13:23:01 51°20.08 2°29.72 288.8 5.1 101 -999
2003-05-26 13:23:59 51°20.06 2°29.82 307.3 2.9 117 23.4
2003-05-26 13:24:59 51°20.05 2°29.85 310.8 0.4 107 20.2
2003-05-26 13:25:59 51°20.05 2°29.86 314.8 0.3 125 19.4
2003-05-26 13:26:59 51°20.05 2°29.86 316.1 0.2 119 18.6
2003-05-26 13:27:59 51°20.05 2°29.87 316.1 0.1 123 18.6
2003-05-26 13:28:59 51°20.05 2°29.87 313.9 0.1 153 18.2
2003-05-26 13:29:59 51°20.04 2°29.87 310 0.1 207 18
2003-05-26 13:30:59 51°20.04 2°29.87 305.5 0.1 235 18.2
2003-05-26 13:31:59 51°20.04 2°29.87 298.2 0.2 232 18.4
2003-05-26 13:32:59 51°20.04 2°29.86 288.4 0.7 279 18.5
2003-05-26 13:33:59 51°20.08 2°29.79 334.4 5 329 24.8
2003-05-26 13:34:59 51°20.15 2°29.82 61.2 4.7 55 27.5
2003-05-26 13:35:59 51°20.13 2°29.94 129.3 7.4 126 16
2003-05-26 13:36:59 51°20.03 2°30.15 128.7 10.5 127 13.5
2003-05-26 13:37:59 51°19.93 2°30.38 129.1 10.8 128 12.3
2003-05-26 13:38:59 51°19.81 2°30.61 128.9 12.1 128 17.1
2003-05-26 13:39:59 51°19.68 2°30.89 128.7 13.5 127 22.3
2003-05-26 13:40:59 51°19.54 2°31.18 127.7 13.7 126 28.7
2003-05-26 13:41:59 51°19.41 2°31.48 127.7 13.8 126 29.5
2003-05-26 13:42:59 51°19.28 2°31.78 127.5 13.8 126 29.8
2003-05-26 13:43:59 51°19.14 2°32.07 127.1 13.7 125 29.7
2003-05-26 13:44:59 51°19.02 2°32.37 126.2 13.5 123 30.1
2003-05-26 13:45:59 51°18.89 2°32.67 127 13.6 124 29
2003-05-26 13:46:59 51°18.76 2°32.97 127.3 13.6 125 26.8
2003-05-26 13:47:59 51°18.63 2°33.26 127.3 13.6 125 22.6
2003-05-26 13:48:59 51°18.5 2°33.56 127 13.3 125 15.1
2003-05-26 13:49:59 51°18.37 2°33.84 127.1 13.5 126 21.2
2003-05-26 13:50:59 51°18.24 2°34.14 126.8 13.6 125 24.5
2003-05-26 13:51:59 51°18.11 2°34.43 126.9 13.6 125 27.1
2003-05-26 13:52:59 51°17.98 2°34.73 124.3 13.7 124 22.8
2003-05-26 13:53:59 51°17.87 2°35.02 123.9 12.6 123 21.3
2003-05-26 13:54:59 51°17.75 2°35.3 124.4 12.5 123 12.6
2003-05-26 13:55:59 51°17.64 2°35.58 124.5 12 122 10.8
2003-05-26 13:56:59 51°17.53 2°35.85 123.8 12.4 123 11.9
2003-05-26 13:57:59 51°17.41 2°36.12 130.6 12.6 130 17.7
2003-05-26 13:58:59 51°17.26 2°36.36 138.1 12.9 138 23
2003-05-26 13:59:59 51°17.1 2°36.59 140 12.9 140 26.2
2003-05-26 14:00:59 51°16.92 2°36.78 152.4 12.9 151 27.6
2003-05-26 14:01:59 51°16.75 2°36.85 192.2 8.1 190 25.9
2003-05-26 14:02:59 51°16.64 2°36.84 167.4 5.3 169 25.8
2003-05-26 14:03:59 51°16.57 2°36.84 200.4 3.1 200 25.8
2003-05-26 14:04:59 51°16.55 2°36.82 238.5 0.8 229 25.8
2003-05-26 14:05:59 51°16.54 2°36.8 253.3 0.8 236 25.8
2003-05-26 14:06:59 51°16.54 2°36.78 264.8 0.8 241 25.8
2003-05-26 14:07:59 51°16.53 2°36.76 272.1 0.8 249 25.8
2003-05-26 14:08:59 51°16.52 2°36.74 276.4 0.8 247 25.9
2003-05-26 14:09:59 51°16.52 2°36.72 280.8 0.9 251 26
2003-05-26 14:10:59 51°16.52 2°36.7 285.9 0.9 254 26
2003-05-26 14:11:59 51°16.51 2°36.68 291.3 0.9 257 26
2003-05-26 14:12:59 51°16.51 2°36.66 296 0.9 259 26
2003-05-26 14:13:59 51°16.51 2°36.64 301.3 0.8 263 26
2003-05-26 14:14:59 51°16.51 2°36.61 307 0.8 266 26
2003-05-26 14:15:59 51°16.51 2°36.59 313.4 0.9 275 26
2003-05-26 14:16:59 51°16.51 2°36.57 325 1.2 295 25.9
2003-05-26 14:17:59 51°16.52 2°36.54 340.6 1.4 315 26
2003-05-26 14:18:59 51°16.54 2°36.52 357.1 1.5 333 25.9
2003-05-26 14:19:59 51°16.57 2°36.51 14.3 1.5 354 25.9
2003-05-26 14:20:59 51°16.59 2°36.51 32.6 1.4 16 26.1
2003-05-26 14:21:59 51°16.61 2°36.53 47.8 1.1 37 25.6
2003-05-26 14:22:59 51°16.63 2°36.58 81.7 4.4 81 25.3
2003-05-26 14:23:59 51°16.57 2°36.69 159.5 6.4 163 25.8
2003-05-26 14:24:59 51°16.43 2°36.62 201.2 12.2 201 26.2
2003-05-26 14:25:59 51°16.22 2°36.51 199.1 13.2 199 26.4
2003-05-26 14:26:59 51°16.02 2°36.39 199.9 13.2 199 26.1
2003-05-26 14:27:59 51°15.81 2°36.28 200.4 13.3 200 24.2
2003-05-26 14:28:59 51°15.6 2°36.16 199.6 13.4 199 21
2003-05-26 14:29:59 51°15.39 2°36.04 200.8 13.5 201 18.3
2003-05-26 14:30:59 51°15.17 2°35.92 197.8 14.2 198 16.6
2003-05-26 14:31:59 51°14.94 2°35.8 198.3 14.3 199 16.9
2003-05-26 14:32:59 51°14.72 2°35.68 198 14.4 198 17.1
2003-05-26 14:33:59 51°14.49 2°35.57 195.9 14.3 196 16.4
2003-05-26 14:34:59 51°14.26 2°35.48 194.3 14.2 195 13.9
2003-05-26 14:35:59 51°14.04 2°35.38 194.3 14.2 195 12.7
2003-05-26 14:36:59 51°13.81 2°35.36 170.7 13.7 171 13.7
2003-05-26 14:37:59 51°13.61 2°35.51 141.7 13.2 142 13.6
2003-05-26 14:38:59 51°13.5 2°35.78 96.2 11.8 93 16.1
2003-05-26 14:39:59 51°13.56 2°36.08 66.7 12.6 61 16.5
2003-05-26 14:40:59 51°13.66 2°36.38 69.1 12.7 64 18.4
2003-05-26 14:41:59 51°13.75 2°36.68 71.9 12.7 67 19.1
2003-05-26 14:42:59 51°13.83 2°36.99 71.3 12.7 67 19.5
2003-05-26 14:43:59 51°13.89 2°37.31 78.9 12.7 75 19
2003-05-26 14:44:59 51°13.94 2°37.64 83.1 12.7 80 17.3
2003-05-26 14:45:59 51°13.98 2°37.98 82.4 12.7 79 16
2003-05-26 14:46:59 51°14.01 2°38.31 87 12.9 84 14.1
2003-05-26 14:47:59 51°14 2°38.65 109.1 12.7 109 10.6
2003-05-26 14:48:59 51°13.83 2°38.84 169.4 13.8 174 12.7
2003-05-26 14:49:59 51°13.6 2°38.79 197.7 14.4 199 13.7
2003-05-26 14:50:59 51°13.38 2°38.63 206.7 14.6 208 13.3
2003-05-26 14:51:59 51°13.17 2°38.43 210.3 14.6 210 13.2
2003-05-26 14:52:59 51°12.96 2°38.23 210.8 14.7 211 12.5
2003-05-26 14:53:59 51°12.76 2°38.03 213.1 14.7 212 11.9
2003-05-26 14:54:59 51°12.55 2°37.82 213.5 14.8 213 11.6
2003-05-26 14:55:59 51°12.35 2°37.6 215.1 14.7 214 11
2003-05-26 14:56:59 51°12.14 2°37.39 214.4 14.7 214 10.9
2003-05-26 14:57:59 51°11.94 2°37.17 214.1 14.8 213 10.6
2003-05-26 14:58:59 51°11.73 2°36.95 215.2 14.8 214 10.7
2003-05-26 14:59:59 51°11.53 2°36.74 214.6 14.8 214 10.5
2003-05-26 15:00:59 51°11.32 2°36.53 211.2 14.9 210 10.6
2003-05-26 15:01:59 51°11.1 2°36.36 205 14.8 205 10.5
2003-05-26 15:02:59 51°10.87 2°36.2 200.5 14.7 200 10.2
2003-05-26 15:03:59 51°10.64 2°36.07 200.9 14.7 201 9.8
2003-05-26 15:04:59 51°10.41 2°35.95 192.4 14.6 192 9.7
2003-05-26 15:05:59 51°10.18 2°35.96 164.3 14.1 164 11.8
2003-05-26 15:06:59 51°10 2°36.17 123.9 13.1 125 16.9
2003-05-26 15:07:59 51°9.95 2°36.49 86 12.5 83 16.5
2003-05-26 15:08:59 51°10.01 2°36.81 77.2 12.7 74 16.5
2003-05-26 15:09:59 51°10.06 2°37.14 79.5 12.7 77 16.6
2003-05-26 15:10:59 51°10.12 2°37.46 77.5 12.7 74 16.6
2003-05-26 15:11:59 51°10.17 2°37.79 76.3 12.6 73 15.9
2003-05-26 15:12:59 51°10.24 2°38.1 75.2 12.7 72 15.3
2003-05-26 15:13:59 51°10.32 2°38.41 69.1 12.7 64 14.9
2003-05-26 15:14:59 51°10.41 2°38.72 70.9 12.8 67 15.1
2003-05-26 15:15:59 51°10.47 2°39.04 80.9 12.7 78 14.5
2003-05-26 15:16:59 51°10.52 2°39.37 79.8 12.8 77 13.9
2003-05-26 15:17:59 51°10.58 2°39.69 73.3 12.7 70 13.5
2003-05-26 15:18:59 51°10.66 2°40.01 74 12.7 70 12.9
2003-05-26 15:19:59 51°10.73 2°40.33 73.7 12.7 70 12.3
2003-05-26 15:20:59 51°10.8 2°40.65 75.4 12.8 72 11.9
2003-05-26 15:21:59 51°10.86 2°40.97 75.6 12.7 72 11.4
2003-05-26 15:22:59 51°10.93 2°41.29 75.7 12.8 72 11.2
2003-05-26 15:23:59 51°10.99 2°41.61 75.5 12.7 72 11
2003-05-26 15:24:59 51°11.05 2°41.87 72 7.3 68 11.3
2003-05-26 15:25:59 51°11.08 2°42.01 88.8 4.8 89 11.3
2003-05-26 15:26:59 51°11.07 2°42.08 120.7 0.8 192 11.4
2003-05-26 15:28:11 51°11.05 2°42.07 146.2 1.2 205 11.4
2003-05-26 15:29:11 51°11.03 2°42.05 157.6 1.3 209 11.5
2003-05-26 15:30:11 51°11.01 2°42.03 166.2 1.5 212 11.6
2003-05-26 15:31:11 51°10.99 2°42.01 178.5 1.5 216 11.6
2003-05-26 15:32:11 51°10.97 2°41.99 192.5 1.6 222 11.7
2003-05-26 15:33:11 51°10.95 2°41.95 208.5 1.8 228 11.6
2003-05-26 15:34:11 51°10.93 2°41.92 229.4 1.9 233 11.7
2003-05-26 15:35:11 51°10.92 2°41.87 244.6 1.9 241 11.7
2003-05-26 15:36:11 51°10.9 2°41.83 256.3 1.9 243 11.6
2003-05-26 15:37:11 51°10.89 2°41.79 266.5 1.8 247 11.7
2003-05-26 15:38:11 51°10.88 2°41.74 275.8 1.8 251 11.6
2003-05-26 15:39:11 51°10.87 2°41.7 283.7 1.7 253 11.6
2003-05-26 15:40:11 51°10.87 2°41.64 315.7 3.3 295 11.6
2003-05-26 15:41:29 51°10.93 2°41.62 49.6 2.4 38 11.5
2003-05-26 15:42:27 51°10.98 2°41.72 55.8 7.6 49 11.4
2003-05-26 15:43:29 51°11.07 2°41.88 69.1 5.4 66 11.2
2003-05-26 15:44:27 51°11.07 2°41.92 80.4 0.3 166 11.3
2003-05-26 15:45:43 51°11.06 2°41.92 89.1 0.6 173 11.3
2003-05-26 15:46:43 51°11.05 2°41.92 87.9 0.4 183 11.3
2003-05-26 15:47:43 51°11.05 2°41.92 87.4 0.5 190 11.4
2003-05-26 15:48:43 51°11.04 2°41.92 87.8 0.5 196 11.4
2003-05-26 15:49:43 51°11.03 2°41.91 87.7 0.5 199 11.4
2003-05-26 15:50:43 51°11.03 2°41.91 86.7 0.5 157 11.4
2003-05-26 15:51:43 51°11.03 2°42.11 85.3 11.6 83 11.4
2003-05-26 15:52:43 51°11.08 2°42.43 76.3 12.7 73 11.4
2003-05-26 15:53:43 51°11.14 2°42.75 76.4 12.6 73 11.5
2003-05-26 15:54:55 51°11.22 2°43.14 77.1 12.7 74 11.5
2003-05-26 15:55:59 51°11.28 2°43.48 76.9 12.6 74 11.6
2003-05-26 15:56:59 51°11.34 2°43.8 77.5 12.6 75 11.6
2003-05-26 15:57:59 51°11.39 2°44.12 77 12.6 74 11.6
2003-05-26 15:59:15 51°11.47 2°44.52 75.2 12.5 71 11.6
2003-05-26 16:00:15 51°11.54 2°44.84 75.7 12.5 72 11.7
2003-05-26 16:01:19 51°11.61 2°45.17 75.4 12.5 72 11.7
2003-05-26 16:02:25 51°11.68 2°45.52 75.4 12.5 72 11.8
2003-05-26 16:03:29 51°11.75 2°45.86 75 12.5 72 11.8
2003-05-26 16:04:35 51°11.82 2°46.2 75 12.5 72 11.7
2003-05-26 16:05:39 51°11.88 2°46.54 75.4 12.4 73 11.7
2003-05-26 16:06:45 51°11.95 2°46.88 75.2 12.4 72 11.6
2003-05-26 16:07:49 51°12.02 2°47.22 75.7 12.5 73 11.4
2003-05-26 16:08:55 51°12.1 2°47.56 67.2 12.5 63 11.2
2003-05-26 16:10:05 51°12.22 2°47.9 66.4 12.5 62 11.1
2003-05-26 16:11:09 51°12.31 2°48.21 67 12.5 64 11.1
2003-05-26 16:12:09 51°12.41 2°48.51 65.9 12.4 61 11
2003-05-26 16:13:09 51°12.53 2°48.78 59.9 12.3 56 10.9
2003-05-26 16:14:19 51°12.66 2°49.09 59.9 12.3 55 10.7
2003-05-26 16:15:25 51°12.79 2°49.39 61.6 12.3 58 10.6
2003-05-26 16:16:29 51°12.9 2°49.68 63.4 12.3 59 10.6
2003-05-26 16:17:35 51°13.01 2°50 64 12.4 60 10.5
2003-05-26 16:18:39 51°13.12 2°50.31 64.7 12.4 62 10.4
2003-05-26 16:19:39 51°13.22 2°50.59 63.8 12.3 60 10.3
2003-05-26 16:20:45 51°13.33 2°50.9 64.9 12.4 62 10.2
2003-05-26 16:21:49 51°13.44 2°51.22 64.4 12.8 62 10.1
2003-05-26 16:22:55 51°13.55 2°51.54 64.2 12.7 61 10
2003-05-26 16:23:59 51°13.66 2°51.85 64.1 12.6 61 9.8
2003-05-26 16:25:09 51°13.78 2°52.2 64.3 12.5 60 9.7
2003-05-26 16:26:09 51°13.88 2°52.49 65.3 12.4 62 9.6
2003-05-26 16:27:09 51°13.98 2°52.78 64.4 12.6 61 9.5
2003-05-26 16:28:35 51°14.11 2°53.17 63.8 8.9 61 9.3
2003-05-26 16:29:39 51°14.17 2°53.3 61.3 4.3 59 9.3
2003-05-26 16:30:55 51°14.21 2°53.38 41.9 2.4 35 9.2
2003-05-26 16:32:05 51°14.24 2°53.41 43.5 1.7 36 9.1
2003-05-26 16:33:09 51°14.26 2°53.45 49.4 1.9 45 9.2
2003-05-26 16:34:09 51°14.29 2°53.5 49.4 4.2 45 9.1
2003-05-26 16:35:15 51°14.38 2°53.64 53.3 8.2 49 9.1
2003-05-26 16:36:39 51°14.47 2°53.92 72.3 8.9 71 8.9
2003-05-26 16:37:45 51°14.5 2°54.18 85.8 9.1 86 10
2003-05-26 16:38:49 51°14.5 2°54.44 92.1 9.2 94 9.8
2003-05-26 16:39:55 51°14.46 2°54.7 104.2 9.2 105 9.5
2003-05-26 16:40:59 51°14.4 2°54.93 115.7 8.4 117 9.7
2003-05-26 16:41:59 51°14.34 2°55.13 121.6 7.9 119 9.7
2003-05-26 16:42:59 51°14.27 2°55.27 135 5.7 131 10.6